Time;durP1;ratioP1;P1;durP2;ratioP2;P2;SDS_P1;SDS_P2;PMS_P1;PMS_P2;Temp;Humidity;BMP_temperature;BMP_pressure;BME280_temperature;BME280_humidity;BME280_pressure;Samples;Min_cycle;Max_cycle;Signal;HPM_P1;HPM_P2
2020/12/09 00:02:09;;;;;;;140.70;53.78;;;;;;;2.33;100.00;94668.75;10470698;28;20816;-72
2020/12/09 00:07:09;;;;;;;137.97;54.50;;;;;;;2.54;100.00;94651.53;10488919;28;20147;-73
2020/12/09 00:12:10;;;;;;;133.63;52.47;;;;;;;2.66;100.00;94654.25;10470631;28;20789;-73
2020/12/09 00:17:10;;;;;;;153.10;59.55;;;;;;;2.65;100.00;94657.94;10487956;28;20695;-73
2020/12/09 00:22:11;;;;;;;139.70;56.17;;;;;;;2.77;100.00;94650.03;10488131;28;20491;-72
2020/12/09 00:27:11;;;;;;;105.95;45.22;;;;;;;2.78;100.00;94651.63;10469003;28;20492;-72
2020/12/09 00:32:12;;;;;;;80.30;36.67;;;;;;;2.84;100.00;94653.41;10487991;28;20034;-72
2020/12/09 00:37:12;;;;;;;67.13;28.67;;;;;;;2.96;100.00;94645.44;10487660;28;20098;-72
2020/12/09 00:42:13;;;;;;;72.43;31.57;;;;;;;3.02;100.00;94645.34;10487636;28;20033;-72
2020/12/09 00:47:13;;;;;;;64.60;30.35;;;;;;;3.18;100.00;94640.41;10487602;28;20286;-72
2020/12/09 00:52:13;;;;;;;60.90;30.07;;;;;;;3.24;100.00;94632.34;10487586;28;20033;-72
2020/12/09 00:57:14;;;;;;;72.20;34.27;;;;;;;3.31;100.00;94629.59;10487431;28;20294;-72
2020/12/09 01:02:14;;;;;;;69.27;29.23;;;;;;;3.39;100.00;94623.09;10468518;28;20546;-72
2020/12/09 01:07:17;;;;;;;77.20;33.38;;;;;;;3.32;100.00;94615.28;10486328;28;20297;-71
2020/12/09 01:12:17;;;;;;;65.35;29.33;;;;;;;3.36;100.00;94624.41;10486827;28;20029;-72
2020/12/09 01:17:18;;;;;;;71.73;33.40;;;;;;;3.28;100.00;94618.59;10485999;28;20395;-71
2020/12/09 01:22:18;;;;;;;72.22;29.90;;;;;;;3.35;100.00;94603.34;10486013;28;20298;-72
2020/12/09 01:27:23;;;;;;;66.03;29.03;;;;;;;3.37;100.00;94599.44;10487005;28;20878;-73
2020/12/09 01:32:23;;;;;;;70.75;31.65;;;;;;;3.50;100.00;94622.31;10486842;28;20287;-73
2020/12/09 01:37:24;;;;;;;63.60;28.10;;;;;;;3.48;100.00;94600.47;10486907;28;20043;-72
2020/12/09 01:42:24;;;;;;;58.77;29.83;;;;;;;3.55;100.00;94597.69;10476213;28;20397;-73
2020/12/09 01:47:25;;;;;;;58.13;27.55;;;;;;;3.62;100.00;94584.31;10494076;28;20290;-72
2020/12/09 01:52:26;;;;;;;62.38;29.58;;;;;;;3.65;100.00;94599.78;10493889;28;20494;-73
2020/12/09 01:57:26;;;;;;;59.17;26.52;;;;;;;3.71;100.00;94606.81;10493861;28;20471;-72
2020/12/09 02:02:27;;;;;;;55.20;25.30;;;;;;;3.69;100.00;94593.75;10493504;28;20075;-71
2020/12/09 02:07:29;;;;;;;51.30;22.63;;;;;;;3.70;100.00;94573.31;10493690;28;20282;-72
2020/12/09 02:12:33;;;;;;;51.30;22.02;;;;;;;3.69;100.00;94583.13;10493451;28;20040;-72
2020/12/09 02:17:34;;;;;;;40.67;20.70;;;;;;;3.69;100.00;94582.31;10474911;28;20108;-72
2020/12/09 02:22:35;;;;;;;47.10;20.92;;;;;;;3.76;100.00;94577.69;10475085;28;20032;-72
2020/12/09 02:27:36;;;;;;;38.65;18.60;;;;;;;3.78;100.00;94569.47;10492573;28;20037;-72
2020/12/09 02:32:36;;;;;;;36.33;17.97;;;;;;;3.77;100.00;94589.94;10492649;28;20403;-71
2020/12/09 02:37:36;;;;;;;38.65;19.48;;;;;;;3.80;100.00;94589.47;10492128;28;20281;-72
2020/12/09 02:42:37;;;;;;;34.63;17.53;;;;;;;3.92;100.00;94581.44;10491910;28;20404;-73
2020/12/09 02:47:37;;;;;;;34.17;16.80;;;;;;;4.05;100.00;94580.41;10492132;28;20352;-72
2020/12/09 02:52:37;;;;;;;33.20;16.97;;;;;;;4.06;100.00;94566.03;10489919;28;20289;-72
2020/12/09 02:57:38;;;;;;;29.00;15.07;;;;;;;4.09;100.00;94586.88;10491311;28;20291;-72
2020/12/09 03:02:38;;;;;;;33.10;17.63;;;;;;;4.08;100.00;94588.69;10490642;28;20044;-72
2020/12/09 03:07:38;;;;;;;30.93;16.10;;;;;;;4.19;100.00;94603.00;10490802;28;20796;-73
2020/12/09 03:12:39;;;;;;;26.37;15.97;;;;;;;4.18;100.00;94611.22;10491001;28;20301;-72
2020/12/09 03:17:39;;;;;;;32.15;16.60;;;;;;;4.18;100.00;94606.72;10489897;28;20477;-72
2020/12/09 03:22:40;;;;;;;28.85;15.38;;;;;;;4.23;100.00;94598.84;10489474;28;20039;-72
2020/12/09 03:27:40;;;;;;;26.67;15.00;;;;;;;4.38;100.00;94593.00;10489113;28;20036;-72
2020/12/09 03:32:40;;;;;;;29.50;15.70;;;;;;;4.48;100.00;94595.06;10489584;28;20290;-72
2020/12/09 03:37:41;;;;;;;27.02;15.05;;;;;;;4.50;100.00;94603.59;10490180;28;20034;-73
2020/12/09 03:42:41;;;;;;;29.27;13.40;;;;;;;4.52;100.00;94592.69;10489178;28;20025;-72
2020/12/09 03:47:42;;;;;;;25.03;13.63;;;;;;;4.41;100.00;94587.19;10489871;28;20294;-72
2020/12/09 03:52:42;;;;;;;26.90;14.93;;;;;;;4.33;100.00;94592.09;10489071;28;20107;-73
2020/12/09 03:57:42;;;;;;;22.97;12.57;;;;;;;4.32;100.00;94575.31;10489028;28;20036;-72
2020/12/09 04:02:43;;;;;;;21.67;12.23;;;;;;;4.30;100.00;94576.59;10489186;28;21109;-72
2020/12/09 04:07:43;;;;;;;28.95;15.90;;;;;;;4.21;100.00;94579.63;10488502;28;20745;-73
2020/12/09 04:12:44;;;;;;;27.02;13.88;;;;;;;4.10;100.00;94583.13;10488580;28;20033;-72
2020/12/09 04:17:45;;;;;;;30.50;16.00;;;;;;;4.03;100.00;94571.84;10488004;28;20040;-72
2020/12/09 04:22:45;;;;;;;26.23;14.13;;;;;;;4.12;100.00;94581.06;10487662;28;20435;-72
2020/12/09 04:27:45;;;;;;;24.80;13.37;;;;;;;4.17;100.00;94572.38;10487082;28;20362;-72
2020/12/09 04:32:46;;;;;;;27.57;13.63;;;;;;;4.19;100.00;94572.97;10486647;28;20286;-73
2020/12/09 04:37:46;;;;;;;25.27;13.32;;;;;;;4.25;100.00;94566.69;10487019;28;20060;-73
2020/12/09 04:42:58;;;;;;;26.07;13.67;;;;;;;4.33;100.00;94547.69;10487554;28;20036;-73
2020/12/09 04:48:06;;;;;;;28.58;13.32;;;;;;;4.20;100.00;94554.09;10486948;28;20294;-73
2020/12/09 04:53:26;;;;;;;26.20;13.20;;;;;;;4.21;100.00;94571.66;10487234;28;20056;-73
2020/12/09 04:58:40;;;;;;;22.90;11.27;;;;;;;3.94;100.00;94560.78;10487085;28;20037;-73
2020/12/09 05:03:40;;;;;;;21.38;12.38;;;;;;;3.90;100.00;94552.44;10486999;28;20034;-73
2020/12/09 05:08:57;;;;;;;23.02;11.55;;;;;;;3.83;100.00;94559.75;10469679;28;20037;-73
2020/12/09 05:13:59;;;;;;;30.45;13.82;;;;;;;3.91;100.00;94554.06;10519923;28;20067;-72
2020/12/09 05:19:04;;;;;;;21.63;12.65;;;;;;;3.87;100.00;94549.47;10534971;28;20047;-73
2020/12/09 05:24:04;;;;;;;20.65;10.98;;;;;;;3.88;100.00;94551.88;10538414;28;20068;-73
2020/12/09 05:29:09;;;;;;;21.05;11.63;;;;;;;3.73;100.00;94544.41;10535516;28;20115;-72
2020/12/09 05:34:22;;;;;;;24.40;11.88;;;;;;;3.70;100.00;94550.19;10534631;28;20051;-72
2020/12/09 05:39:23;;;;;;;25.38;12.38;;;;;;;3.60;100.00;94544.69;10535049;28;20036;-72
2020/12/09 05:44:24;;;;;;;28.27;14.07;;;;;;;3.57;100.00;94535.31;10533489;28;20042;-72
2020/12/09 05:49:28;;;;;;;28.55;13.52;;;;;;;3.54;100.00;94545.59;10532449;28;20119;-72
2020/12/09 05:54:28;;;;;;;22.52;12.50;;;;;;;3.55;100.00;94550.66;10532283;28;20174;-72
2020/12/09 05:59:33;;;;;;;31.83;15.03;;;;;;;3.56;100.00;94556.81;10532494;28;20088;-73
2020/12/09 06:04:44;;;;;;;26.92;14.45;;;;;;;3.63;100.00;94559.31;10505932;28;20510;-72
2020/12/09 06:10:08;;;;;;;29.20;15.52;;;;;;;3.68;100.00;94554.91;10474212;28;20119;-72
2020/12/09 06:15:15;;;;;;;23.02;13.60;;;;;;;3.77;100.00;94544.75;10490772;28;20106;-71
2020/12/09 06:20:18;;;;;;;28.83;13.75;;;;;;;3.83;100.00;94561.63;10490511;28;20040;-72
2020/12/09 06:25:20;;;;;;;25.02;12.45;;;;;;;3.78;100.00;94553.53;10491128;28;20050;-72
2020/12/09 06:30:28;;;;;;;18.42;10.52;;;;;;;3.68;100.00;94556.78;10491162;28;20450;-72
2020/12/09 06:35:29;;;;;;;23.38;12.13;;;;;;;3.73;100.00;94564.88;10492998;28;20078;-72
2020/12/09 06:40:29;;;;;;;20.88;10.18;;;;;;;3.69;100.00;94566.38;10513286;28;20086;-72
2020/12/09 06:45:46;;;;;;;24.10;12.05;;;;;;;3.71;100.00;94569.59;10494394;28;20399;-72
2020/12/09 06:50:47;;;;;;;25.10;13.38;;;;;;;3.70;100.00;94562.69;10500355;28;20403;-73
2020/12/09 06:55:51;;;;;;;26.10;13.38;;;;;;;3.59;100.00;94564.31;10506146;28;20032;-72
2020/12/09 07:01:02;;;;;;;23.27;11.73;;;;;;;3.58;100.00;94574.13;10528958;28;20487;-72
2020/12/09 07:06:20;;;;;;;23.83;13.05;;;;;;;3.63;100.00;94554.00;10527061;28;20058;-72
2020/12/09 07:11:21;;;;;;;23.15;10.10;;;;;;;3.62;100.00;94566.50;10514383;28;20024;-73
2020/12/09 07:16:28;;;;;;;16.03;9.20;;;;;;;3.57;100.00;94553.09;10531935;28;20047;-73
2020/12/09 07:21:29;;;;;;;20.25;10.15;;;;;;;3.63;100.00;94554.84;10519938;28;20294;-72
2020/12/09 07:26:32;;;;;;;19.20;10.18;;;;;;;3.78;100.00;94543.69;10504594;28;20454;-72
2020/12/09 07:31:32;;;;;;;19.17;9.75;;;;;;;3.78;100.00;94545.56;10489659;28;20035;-72
2020/12/09 07:36:33;;;;;;;18.38;9.68;;;;;;;3.68;100.00;94543.50;10502906;28;20028;-72
2020/12/09 07:41:43;;;;;;;17.63;8.27;;;;;;;3.83;100.00;94548.31;10489173;28;20036;-73
2020/12/09 07:47:00;;;;;;;17.25;9.18;;;;;;;3.85;100.00;94549.72;10489860;28;20202;-73
2020/12/09 07:52:01;;;;;;;19.52;8.82;;;;;;;3.90;100.00;94549.78;10517175;28;20032;-72
2020/12/09 07:57:01;;;;;;;21.70;11.07;;;;;;;3.99;100.00;94552.06;10471054;28;20036;-71
2020/12/09 08:02:19;;;;;;;21.10;12.20;;;;;;;4.00;100.00;94556.34;10488789;28;20036;-71
2020/12/09 08:07:23;;;;;;;19.75;10.07;;;;;;;4.03;100.00;94555.88;10487991;28;20111;-70
2020/12/09 08:12:26;;;;;;;14.23;8.43;;;;;;;4.21;100.00;94557.56;10488355;28;20080;-71
2020/12/09 08:17:28;;;;;;;14.48;8.85;;;;;;;4.22;100.00;94559.97;10512728;28;20048;-71
2020/12/09 08:22:29;;;;;;;18.08;9.32;;;;;;;4.30;100.00;94561.47;10529586;28;20044;-72
2020/12/09 08:27:38;;;;;;;16.63;9.88;;;;;;;4.42;100.00;94561.38;10513925;28;20038;-72
2020/12/09 08:32:57;;;;;;;15.05;8.98;;;;;;;4.39;100.00;94561.88;10529776;28;20028;-71
2020/12/09 08:37:59;;;;;;;16.35;8.25;;;;;;;4.40;100.00;94566.94;10528338;28;20035;-71
2020/12/09 08:43:01;;;;;;;17.77;9.70;;;;;;;4.34;100.00;94562.59;10529116;28;20115;-73
2020/12/09 08:48:01;;;;;;;17.73;10.25;;;;;;;4.38;100.00;94573.56;10528334;28;20036;-71
2020/12/09 08:53:02;;;;;;;17.63;10.63;;;;;;;4.33;100.00;94571.63;10528579;28;20082;-71
2020/12/09 08:58:02;;;;;;;15.15;9.70;;;;;;;4.47;100.00;94560.69;10529193;28;20032;-73
2020/12/09 09:03:04;;;;;;;19.03;9.57;;;;;;;4.58;100.00;94554.50;10528989;28;20478;-73
2020/12/09 09:08:04;;;;;;;12.63;7.20;;;;;;;4.55;100.00;94547.81;10528789;28;20804;-73
2020/12/09 09:13:05;;;;;;;15.40;9.27;;;;;;;4.64;100.00;94545.53;10528729;28;20020;-73
2020/12/09 09:18:06;;;;;;;22.13;10.18;;;;;;;4.52;100.00;94547.47;10528541;28;20056;-72
2020/12/09 09:23:07;;;;;;;15.80;8.65;;;;;;;4.57;100.00;94540.38;10528467;28;20068;-72
2020/12/09 09:28:07;;;;;;;15.98;8.68;;;;;;;4.61;100.00;94533.53;10528294;28;20474;-72
2020/12/09 09:33:07;;;;;;;23.08;8.73;;;;;;;4.69;100.00;94534.16;10528009;28;20032;-72
2020/12/09 09:38:08;;;;;;;18.63;10.07;;;;;;;4.92;100.00;94520.69;10528059;28;20506;-72
2020/12/09 09:43:09;;;;;;;17.98;9.70;;;;;;;4.86;100.00;94500.38;10483209;28;20299;-72
2020/12/09 09:48:09;;;;;;;17.40;8.95;;;;;;;4.63;100.00;94490.69;10488578;28;20167;-72
2020/12/09 09:53:10;;;;;;;22.08;9.13;;;;;;;4.70;100.00;94495.84;10494835;28;20032;-74
2020/12/09 09:58:11;;;;;;;19.20;10.88;;;;;;;4.69;100.00;94494.25;10485737;28;20113;-72
2020/12/09 10:03:11;;;;;;;14.93;8.50;;;;;;;4.84;100.00;94481.16;10507252;28;20141;-72
2020/12/09 10:08:12;;;;;;;11.50;6.05;;;;;;;4.92;100.00;94486.09;10506409;28;20024;-73
2020/12/09 10:13:12;;;;;;;14.38;8.07;;;;;;;5.00;100.00;94474.22;10504164;28;20071;-72
2020/12/09 10:18:12;;;;;;;14.02;7.47;;;;;;;5.05;100.00;94484.13;10492663;28;20048;-72
2020/12/09 10:23:13;;;;;;;11.40;6.65;;;;;;;4.83;100.00;94468.91;10492566;28;20496;-74
2020/12/09 10:28:13;;;;;;;13.27;7.63;;;;;;;4.81;100.00;94463.00;10492399;28;20039;-73
2020/12/09 10:33:14;;;;;;;10.93;7.57;;;;;;;4.73;100.00;94448.28;10505494;28;20384;-73
2020/12/09 10:38:15;;;;;;;10.95;7.10;;;;;;;4.72;100.00;94428.03;10492062;28;20287;-73
2020/12/09 10:43:15;;;;;;;11.45;6.90;;;;;;;4.75;100.00;94426.72;10491766;28;20033;-74
2020/12/09 10:48:16;;;;;;;11.75;7.53;;;;;;;4.86;100.00;94411.72;10491547;28;20036;-73
2020/12/09 10:53:17;;;;;;;11.27;7.95;;;;;;;4.92;100.00;94397.41;10491400;28;20063;-74
2020/12/09 10:58:17;;;;;;;10.02;7.38;;;;;;;4.96;100.00;94404.66;10525644;28;20451;-74
2020/12/09 11:03:18;;;;;;;14.60;9.17;;;;;;;5.15;100.00;94396.38;10530366;28;20035;-74
2020/12/09 11:08:18;;;;;;;15.32;8.93;;;;;;;5.07;100.00;94402.16;10527547;28;20297;-75
2020/12/09 11:13:19;;;;;;;12.70;7.97;;;;;;;5.02;100.00;94394.88;10527052;28;20085;-75
2020/12/09 11:18:22;;;;;;;18.10;8.25;;;;;;;4.92;100.00;94387.56;10527968;28;20050;-75
2020/12/09 11:23:23;;;;;;;11.93;6.72;;;;;;;4.84;100.00;94398.63;10530191;28;20036;-74
2020/12/09 11:28:23;;;;;;;14.32;8.35;;;;;;;4.72;100.00;94387.28;10526287;28;20032;-74
2020/12/09 11:33:23;;;;;;;11.20;7.33;;;;;;;4.80;100.00;94384.22;10490147;28;20040;-74
2020/12/09 11:38:24;;;;;;;13.07;7.60;;;;;;;4.75;100.00;94360.97;10489399;28;20036;-74
2020/12/09 11:43:27;;;;;;;7.22;5.97;;;;;;;4.71;100.00;94354.53;10489731;28;20136;-74
2020/12/09 11:48:27;;;;;;;11.82;7.32;;;;;;;4.78;100.00;94343.72;10488793;28;20032;-74
2020/12/09 11:53:28;;;;;;;14.77;8.18;;;;;;;4.88;100.00;94330.50;10504714;28;20020;-74
2020/12/09 11:58:28;;;;;;;9.13;6.57;;;;;;;4.91;100.00;94330.03;10488189;28;20167;-75
2020/12/09 12:03:29;;;;;;;13.23;6.63;;;;;;;4.83;100.00;94341.13;10488111;28;20036;-74
2020/12/09 12:08:29;;;;;;;9.25;6.13;;;;;;;4.78;100.00;94336.50;10488254;28;20290;-74
2020/12/09 12:13:30;;;;;;;11.07;7.25;;;;;;;4.85;100.00;94325.69;10487782;28;20127;-73
2020/12/09 12:18:31;;;;;;;11.18;6.13;;;;;;;4.86;100.00;94327.31;10487741;28;20052;-74
2020/12/09 12:23:32;;;;;;;13.05;7.25;;;;;;;4.89;100.00;94318.81;10490112;28;20033;-74
2020/12/09 12:28:32;;;;;;;13.90;7.07;;;;;;;4.85;100.00;94317.69;10528940;28;20047;-74
2020/12/09 12:33:33;;;;;;;10.63;6.85;;;;;;;4.77;100.00;94315.47;10529503;28;20059;-74
2020/12/09 12:38:34;;;;;;;11.07;6.78;;;;;;;4.79;100.00;94308.06;10528920;28;20031;-74
2020/12/09 12:43:34;;;;;;;10.18;7.05;;;;;;;4.60;100.00;94315.53;10529001;28;20487;-74
2020/12/09 12:48:35;;;;;;;10.10;6.45;;;;;;;4.68;100.00;94308.97;10528681;28;20040;-74
2020/12/09 12:53:35;;;;;;;12.67;6.63;;;;;;;4.68;100.00;94296.47;10528805;28;20479;-74
2020/12/09 12:58:36;;;;;;;11.38;6.38;;;;;;;4.68;100.00;94314.31;10528960;28;20340;-74
2020/12/09 13:03:37;;;;;;;12.25;6.47;;;;;;;4.73;100.00;94303.69;10528879;28;20044;-74
2020/12/09 13:08:37;;;;;;;14.75;6.50;;;;;;;4.76;100.00;94313.88;10528684;28;20035;-74
2020/12/09 13:13:38;;;;;;;10.27;6.03;;;;;;;4.51;100.00;94325.78;10527996;28;20035;-73
2020/12/09 13:18:38;;;;;;;15.85;6.70;;;;;;;4.40;100.00;94327.50;10528612;28;20032;-74
2020/12/09 13:23:39;;;;;;;12.93;7.30;;;;;;;4.30;100.00;94321.22;10527676;28;20046;-74
2020/12/09 13:28:40;;;;;;;14.52;8.15;;;;;;;4.36;100.00;94309.63;10527877;28;20040;-74
2020/12/09 13:33:41;;;;;;;12.80;7.15;;;;;;;4.53;100.00;94320.22;10528816;28;20568;-75
2020/12/09 13:38:41;;;;;;;12.32;6.85;;;;;;;4.57;100.00;94319.47;10511073;28;20111;-73
2020/12/09 13:43:41;;;;;;;13.60;7.32;;;;;;;4.50;100.00;94320.72;10494071;28;20449;-75
2020/12/09 13:48:42;;;;;;;14.98;7.65;;;;;;;4.46;100.00;94312.41;10493701;28;20058;-75
2020/12/09 13:53:43;;;;;;;12.13;7.25;;;;;;;4.54;100.00;94300.56;10493545;28;20028;-75
2020/12/09 13:58:44;;;;;;;11.50;6.65;;;;;;;4.52;100.00;94271.53;10475309;28;20483;-75
2020/12/09 14:03:44;;;;;;;13.77;7.72;;;;;;;4.39;100.00;94262.03;10503959;28;20051;-75
2020/12/09 14:08:45;;;;;;;17.52;7.45;;;;;;;4.48;100.00;94251.78;10493252;28;20036;-75
2020/12/09 14:13:45;;;;;;;12.13;7.30;;;;;;;4.53;100.00;94251.03;10510619;28;20052;-75
2020/12/09 14:18:47;;;;;;;15.52;8.00;;;;;;;4.33;100.00;94248.91;10525610;28;20040;-75
2020/12/09 14:23:51;;;;;;;15.55;7.60;;;;;;;4.23;100.00;94237.09;10525271;28;20036;-75
2020/12/09 14:28:51;;;;;;;14.75;7.90;;;;;;;4.09;100.00;94241.16;10520362;28;20032;-75
2020/12/09 14:33:52;;;;;;;15.23;7.87;;;;;;;3.81;100.00;94239.38;10512855;28;20036;-74
2020/12/09 14:38:53;;;;;;;15.63;7.97;;;;;;;3.82;100.00;94217.88;10533824;28;20407;-75
2020/12/09 14:43:56;;;;;;;12.80;7.72;;;;;;;3.96;100.00;94225.53;10533301;28;20032;-75
2020/12/09 14:48:57;;;;;;;13.27;7.57;;;;;;;4.09;100.00;94203.94;10514629;28;20040;-75
2020/12/09 14:53:57;;;;;;;13.10;7.60;;;;;;;4.05;100.00;94198.28;10533341;28;20043;-75
2020/12/09 14:58:59;;;;;;;10.98;6.63;;;;;;;4.20;100.00;94199.53;10512363;28;20044;-74
2020/12/09 15:04:00;;;;;;;11.55;7.03;;;;;;;4.16;100.00;94195.75;10491043;28;20403;-74
2020/12/09 15:09:00;;;;;;;10.10;5.85;;;;;;;4.11;100.00;94231.06;10490191;28;20040;-74
2020/12/09 15:14:01;;;;;;;11.13;6.30;;;;;;;4.07;100.00;94220.09;10521789;28;20135;-75
2020/12/09 15:19:03;;;;;;;12.10;5.47;;;;;;;3.97;100.00;94219.97;10530595;28;20032;-75
2020/12/09 15:24:04;;;;;;;9.13;4.90;;;;;;;3.86;100.00;94229.63;10517085;28;20064;-75
2020/12/09 15:29:05;;;;;;;10.32;6.20;;;;;;;3.81;100.00;94216.28;10514948;28;20143;-76
2020/12/09 15:34:08;;;;;;;10.35;6.70;;;;;;;3.87;100.00;94219.81;10495687;28;20041;-76
2020/12/09 15:39:08;;;;;;;16.80;5.93;;;;;;;3.91;100.00;94226.28;10496805;28;20044;-76
2020/12/09 15:44:09;;;;;;;10.10;5.72;;;;;;;3.87;100.00;94231.25;10516824;28;20077;-77
2020/12/09 15:49:10;;;;;;;10.43;6.00;;;;;;;3.94;100.00;94221.25;10512238;28;20036;-76
2020/12/09 15:54:10;;;;;;;12.75;7.20;;;;;;;3.96;100.00;94225.53;10530910;28;20032;-76
2020/12/09 15:59:11;;;;;;;11.68;6.53;;;;;;;3.88;100.00;94219.59;10529043;28;20035;-76
2020/12/09 16:04:12;;;;;;;9.73;5.88;;;;;;;3.97;100.00;94206.66;10529359;28;20463;-76
2020/12/09 16:09:12;;;;;;;14.65;6.85;;;;;;;3.89;100.00;94218.53;10515040;28;20349;-77
2020/12/09 16:14:13;;;;;;;12.55;6.28;;;;;;;3.86;100.00;94210.25;10492137;28;20098;-75
2020/12/09 16:19:14;;;;;;;12.65;7.40;;;;;;;3.75;100.00;94218.06;10529871;28;20430;-77
2020/12/09 16:24:15;;;;;;;12.05;6.25;;;;;;;3.57;100.00;94227.09;10524108;28;20450;-77
2020/12/09 16:29:16;;;;;;;11.80;6.43;;;;;;;3.60;100.00;94239.09;10487825;28;20036;-76
2020/12/09 16:34:17;;;;;;;12.85;7.28;;;;;;;3.63;100.00;94237.78;10486450;28;20476;-74
2020/12/09 16:39:18;;;;;;;13.32;6.30;;;;;;;3.54;100.00;94240.84;10499786;28;20103;-75
2020/12/09 16:44:19;;;;;;;12.88;6.95;;;;;;;3.55;100.00;94234.50;10527620;28;20142;-75
2020/12/09 16:49:19;;;;;;;10.75;6.57;;;;;;;3.63;100.00;94216.53;10528007;28;20027;-76
2020/12/09 16:54:20;;;;;;;14.90;7.90;;;;;;;3.66;100.00;94210.75;10528715;28;20024;-75
2020/12/09 16:59:21;;;;;;;13.65;8.00;;;;;;;3.68;100.00;94204.13;10529334;28;20032;-75
2020/12/09 17:04:25;;;;;;;12.38;7.20;;;;;;;3.71;100.00;94206.31;10525979;28;20044;-74
2020/12/09 17:09:26;;;;;;;11.63;7.30;;;;;;;3.73;100.00;94208.72;10495051;28;20062;-74
2020/12/09 17:14:27;;;;;;;14.27;7.22;;;;;;;3.79;100.00;94202.44;10495157;28;20057;-73
2020/12/09 17:19:27;;;;;;;11.32;6.28;;;;;;;3.75;100.00;94217.25;10495163;28;20114;-73
2020/12/09 17:24:29;;;;;;;13.73;7.13;;;;;;;3.71;100.00;94211.63;10525703;28;20032;-73
2020/12/09 17:29:29;;;;;;;10.52;6.63;;;;;;;3.66;100.00;94184.19;10485871;28;20042;-74
2020/12/09 17:34:30;;;;;;;13.88;7.35;;;;;;;3.73;100.00;94179.50;10494180;28;20086;-73
2020/12/09 17:39:31;;;;;;;13.32;6.75;;;;;;;3.72;100.00;94181.31;10522560;28;20044;-74
2020/12/09 17:44:33;;;;;;;15.90;7.80;;;;;;;3.60;100.00;94167.34;10526737;28;20098;-73
2020/12/09 17:49:33;;;;;;;12.18;6.25;;;;;;;3.58;100.00;94161.47;10535807;28;20123;-73
2020/12/09 17:54:34;;;;;;;9.52;6.07;;;;;;;3.63;100.00;94169.53;10535803;28;20024;-75
2020/12/09 17:59:34;;;;;;;12.00;4.57;;;;;;;3.64;100.00;94149.06;10517811;28;20757;-74
2020/12/09 18:04:35;;;;;;;4.57;3.63;;;;;;;3.56;100.00;94171.53;10533979;28;20040;-72
2020/12/09 18:09:36;;;;;;;8.70;4.85;;;;;;;3.59;100.00;94168.41;10534841;28;20024;-73
2020/12/09 18:14:37;;;;;;;10.63;5.82;;;;;;;3.63;100.00;94134.97;10535063;28;20106;-73
2020/12/09 18:19:38;;;;;;;6.40;4.15;;;;;;;3.65;100.00;94140.03;10533792;28;20446;-73
2020/12/09 18:24:39;;;;;;;7.75;5.20;;;;;;;3.67;100.00;94140.59;10534125;28;20034;-72
2020/12/09 18:29:41;;;;;;;7.53;5.25;;;;;;;3.69;100.00;94131.31;10534765;28;20516;-72
2020/12/09 18:34:42;;;;;;;7.90;4.63;;;;;;;3.73;100.00;94124.47;10533672;28;20033;-72
2020/12/09 18:39:43;;;;;;;9.52;5.28;;;;;;;3.64;100.00;94130.47;10533748;28;20032;-73
2020/12/09 18:44:47;;;;;;;6.95;4.45;;;;;;;3.50;100.00;94122.03;10533264;28;20028;-72
2020/12/09 18:49:48;;;;;;;7.88;5.70;;;;;;;3.43;100.00;94127.50;10521591;28;20043;-73
2020/12/09 18:54:49;;;;;;;9.95;5.03;;;;;;;3.40;100.00;94122.69;10533603;28;20036;-72
2020/12/09 18:59:51;;;;;;;6.23;3.83;;;;;;;3.47;100.00;94115.34;10532839;28;20078;-73
2020/12/09 19:04:52;;;;;;;4.78;3.25;;;;;;;3.50;100.00;94133.47;10533177;28;20326;-72
2020/12/09 19:09:54;;;;;;;7.05;4.03;;;;;;;3.53;100.00;94151.56;10531044;28;20044;-71
2020/12/09 19:14:55;;;;;;;6.97;3.88;;;;;;;3.55;100.00;94112.28;10490682;28;20072;-73
2020/12/09 19:19:55;;;;;;;7.97;4.47;;;;;;;3.60;100.00;94119.53;10490829;28;20098;-74
2020/12/09 19:24:57;;;;;;;7.95;4.40;;;;;;;3.66;100.00;94131.03;10490445;28;20102;-73
2020/12/09 19:29:58;;;;;;;10.27;5.50;;;;;;;3.69;100.00;94111.94;10472736;28;20036;-73
2020/12/09 19:34:59;;;;;;;9.13;4.75;;;;;;;3.73;100.00;94097.09;10489490;28;20067;-73
2020/12/09 19:40:00;;;;;;;8.32;5.80;;;;;;;3.73;100.00;94097.91;10489824;28;20037;-71
2020/12/09 19:45:01;;;;;;;7.97;5.13;;;;;;;3.81;100.00;94104.66;10505492;28;20470;-74
2020/12/09 19:50:07;;;;;;;9.13;4.82;;;;;;;3.82;100.00;94084.19;10494942;28;20032;-73
2020/12/09 19:55:07;;;;;;;7.82;4.75;;;;;;;3.88;100.00;94081.34;10476720;28;20024;-74
2020/12/09 20:00:08;;;;;;;8.63;5.03;;;;;;;3.98;100.00;94059.41;10514025;28;20126;-74
2020/12/09 20:05:10;;;;;;;7.35;4.38;;;;;;;3.98;100.00;94050.59;10530768;28;20097;-74
2020/12/09 20:10:12;;;;;;;7.80;4.88;;;;;;;3.99;100.00;94046.91;10528451;28;20067;-73
2020/12/09 20:15:15;;;;;;;8.13;4.55;;;;;;;3.91;100.00;94045.50;10529346;28;20048;-73
2020/12/09 20:20:17;;;;;;;6.60;4.60;;;;;;;3.90;100.00;94075.78;10500684;28;20032;-73
2020/12/09 20:25:19;;;;;;;7.95;5.82;;;;;;;3.88;100.00;94080.53;10506728;28;20119;-72
2020/12/09 20:30:21;;;;;;;8.23;4.18;;;;;;;3.98;100.00;94082.50;10521916;28;20069;-73
2020/12/09 20:35:22;;;;;;;8.77;3.35;;;;;;;4.04;100.00;94095.63;10525363;28;20060;-72
2020/12/09 20:40:23;;;;;;;4.50;4.00;;;;;;;4.16;100.00;94081.38;10503588;28;20473;-74
2020/12/09 20:45:25;;;;;;;5.03;3.78;;;;;;;4.25;100.00;94059.41;10528254;28;20036;-73
2020/12/09 20:50:26;;;;;;;8.30;3.75;;;;;;;4.33;100.00;94055.53;10529430;28;20461;-73
2020/12/09 20:55:27;;;;;;;4.93;3.40;;;;;;;4.34;100.00;94061.63;10529629;28;20845;-73
2020/12/09 21:00:29;;;;;;;4.05;2.88;;;;;;;4.30;100.00;94068.50;10522419;28;20113;-73
2020/12/09 21:05:31;;;;;;;4.90;3.22;;;;;;;4.30;100.00;94058.69;10526836;28;20151;-72
2020/12/09 21:10:32;;;;;;;7.53;4.32;;;;;;;4.35;100.00;94066.69;10525497;28;20047;-73
2020/12/09 21:15:33;;;;;;;6.22;4.32;;;;;;;4.52;100.00;94058.66;10537253;28;20040;-73
2020/12/09 21:20:33;;;;;;;6.55;4.03;;;;;;;4.64;100.00;94071.00;10537601;28;20051;-73
2020/12/09 21:25:34;;;;;;;4.57;3.72;;;;;;;4.79;100.00;94073.78;10488129;28;20495;-73
2020/12/09 21:30:35;;;;;;;6.22;3.83;;;;;;;4.84;100.00;94057.84;10516727;28;20070;-73
2020/12/09 21:35:36;;;;;;;6.70;4.40;;;;;;;4.89;100.00;94049.91;10497839;28;20046;-73
2020/12/09 21:40:39;;;;;;;5.45;3.55;;;;;;;5.01;100.00;94038.25;10498657;28;20060;-73
2020/12/09 21:45:39;;;;;;;5.47;4.05;;;;;;;4.93;100.00;94035.03;10466233;28;20039;-73
2020/12/09 21:50:40;;;;;;;6.03;3.55;;;;;;;4.90;100.00;94040.06;10492362;28;20028;-73
2020/12/09 21:55:40;;;;;;;6.70;4.38;;;;;;;4.85;100.00;94051.47;10492479;28;20068;-73
2020/12/09 22:00:41;;;;;;;5.18;3.25;;;;;;;4.73;100.00;94033.00;10517730;28;20028;-73
2020/12/09 22:05:44;;;;;;;6.32;3.63;;;;;;;4.72;100.00;94026.06;10501372;28;20055;-73
2020/12/09 22:10:44;;;;;;;9.43;4.18;;;;;;;4.70;100.00;94036.19;10509216;28;20039;-73
2020/12/09 22:15:45;;;;;;;6.53;4.00;;;;;;;4.75;100.00;94030.88;10506345;28;20406;-73
2020/12/09 22:20:45;;;;;;;5.90;3.97;;;;;;;4.89;100.00;94046.44;10474312;28;20047;-73
2020/12/09 22:25:46;;;;;;;5.53;3.70;;;;;;;5.00;100.00;94034.03;10447739;28;20102;-73
2020/12/09 22:30:46;;;;;;;5.50;4.18;;;;;;;5.00;100.00;94042.00;10447841;28;20164;-73
2020/12/09 22:35:46;;;;;;;6.80;4.03;;;;;;;5.07;100.00;94031.94;10432112;28;20040;-73
2020/12/09 22:40:47;;;;;;;7.90;4.70;;;;;;;5.14;100.00;94035.16;10449794;28;20335;-73
2020/12/09 22:45:47;;;;;;;7.72;4.07;;;;;;;5.15;100.00;94023.47;10460416;28;20037;-73
2020/12/09 22:50:48;;;;;;;7.53;4.80;;;;;;;5.08;100.00;94030.84;10489887;28;20029;-73
2020/12/09 22:55:48;;;;;;;11.75;6.07;;;;;;;5.07;100.00;94010.63;10489914;28;20294;-73
2020/12/09 23:00:48;;;;;;;8.30;4.60;;;;;;;5.08;100.00;93990.91;10458907;28;20025;-73
2020/12/09 23:05:49;;;;;;;9.15;5.47;;;;;;;5.04;100.00;94019.13;10447668;28;20445;-73